Weather at Daniel K Inouye International Airport

Public forecast

Using degrees Fahrenheit for public forecast. Weather courtesy of forecast.io.

Current aviation weather report (METAR) for Daniel K Inouye International Airport

Retrieved 2022/05/19 07:53 UTC (21 minutes ago):

PHNL 190753Z 00000KT 10SM FEW025 FEW075 SCT110 21/19 A3005

Aviation forecast (TAF) for Daniel K Inouye International Airport

Retrieved 2022/05/19 06:36 UTC (2 hours ago):

TAF PHNL 190533Z 1906/2012 22009KT 6SM -RA BR SCT020 BKN035 OVC100 FM191000 16007KT P6SM VCSH SCT020 BKN040 BKN110 FM192000 18011KT P6SM VCSH SCT025 BKN045 FM200500 18008KT P6SM SCT025 BKN050